Latest Weather Observations for Low Isles

IDQ60801

Issued at 5:05 pm EST Thursday 28 August 2014 (issued every 30 minutes, with the page automatically refreshed every 10 minutes)

About weather observations | Map of weather stations | Latest weather observations for QLD | Other Formats
Station Details ID: 031037 Name: LOW ISLES LIGHTHOUSE Lat: -16.38 Lon: 145.56 Height: 2.9 m
Data from the previous 72 hours. | See also: Recent months at Low Isles
Date/Time
EST
Temp
°C
App
Temp
°C
Dew
Point
Rel
Hum
%
Delta-T
°C
Wind Press
QNH
hPa
Press
MSL
hPa
Rain
since 9 am
mm
Dir
 
Spd
km/h
Gust
km/h
Spd
kts
Gust
kts
28/05:00pm 23.3 19.5 14.6 58 5.1 ESE 28 35 15 19 1015.9 - 0.0
28/04:30pm 24.0 19.9 13.8 53 6.0 ESE 28 35 15 19 1015.7 - 0.0
28/04:00pm 24.5 19.8 13.1 49 6.6 ESE 30 37 16 20 1015.6 - 0.0
28/03:30pm 25.2 20.8 12.8 46 7.2 ESE 28 35 15 19 1015.7 - 0.0
28/03:00pm 25.5 21.5 14.0 49 6.8 ESE 28 35 15 19 1015.7 1015.6 0.0
28/02:30pm 25.4 21.1 14.5 51 6.5 ESE 30 35 16 19 1016.1 - 0.0
28/02:00pm 25.9 22.0 14.4 49 6.9 ESE 28 33 15 18 1016.3 - 0.0
28/01:30pm 25.7 22.1 14.2 49 6.8 ESE 26 32 14 17 1016.6 - 0.0
28/01:00pm 25.3 21.8 13.5 48 6.9 SE 24 30 13 16 1016.9 - 0.0
28/12:30pm 25.2 22.3 14.0 49 6.6 SE 22 30 12 16 1017.2 - 0.0
28/12:00pm 24.8 21.7 14.6 53 6.1 SE 24 28 13 15 1017.5 1017.4 0.0
28/11:30am 24.5 22.3 14.9 55 5.7 SE 20 24 11 13 1017.9 - 0.0
28/11:00am 23.6 21.5 15.1 59 5.1 SSE 20 24 11 13 1018.2 - 0.0
28/10:30am 23.2 21.4 15.5 62 4.6 SSE 19 22 10 12 1018.4 - 0.0
28/10:00am 22.8 21.2 16.1 66 4.1 SSE 19 22 10 12 1018.4 - 0.0
28/09:30am 22.4 20.9 16.4 69 3.6 S 19 22 10 12 1018.4 - 0.0
28/09:00am 21.7 20.7 16.6 73 3.1 SSE 17 20 9 11 1018.2 1018.1 0.0
28/08:30am 21.2 19.8 16.6 75 2.8 S 19 20 10 11 1017.9 - 0.0
28/08:00am 21.0 19.9 17.2 79 2.3 SSW 19 20 10 11 1017.6 - 0.0
28/07:30am 20.8 19.4 16.6 77 2.5 SSW 19 20 10 11 1017.3 - 0.0
28/07:00am 20.8 19.5 16.8 78 2.4 SSW 19 20 10 11 1016.9 - 0.0
28/06:30am 20.8 19.7 17.2 80 2.2 SSW 19 20 10 11 1016.6 - 0.0
28/06:00am 20.8 19.6 17.0 79 2.3 SSW 19 20 10 11 1016.2 1016.1 0.0
28/05:30am 20.4 19.0 16.6 79 2.3 SSW 19 20 10 11 1016.0 - 0.0
28/05:00am 20.3 19.5 17.1 82 1.9 SW 17 20 9 11 1015.9 - 0.0
28/04:30am 20.2 18.7 16.2 78 2.4 SW 19 20 10 11 1015.9 - 0.0
28/04:00am 20.2 18.2 15.4 74 2.8 SW 20 20 11 11 1015.9 - 0.0
28/03:30am 20.4 18.5 15.8 75 2.7 WSW 20 22 11 12 1016.0 - 0.0
28/03:00am 20.5 18.7 15.9 75 2.7 WSW 20 22 11 12 1016.0 1015.9 0.0
28/02:30am 20.6 19.1 16.2 76 2.6 WSW 19 20 10 11 1016.1 - 0.0
28/02:00am 20.8 19.2 16.6 77 2.5 WSW 20 22 11 12 1016.3 - 0.0
28/01:30am 21.1 20.1 17.5 80 2.2 WSW 19 20 10 11 1016.4 - 0.0
28/01:00am 21.2 20.6 17.6 80 2.2 SW 17 20 9 11 1016.5 - 0.0
28/12:30am 21.3 20.8 17.7 80 2.2 SW 17 20 9 11 1016.7 - 0.0
28/12:00am 21.3 20.1 17.1 77 2.6 WSW 19 22 10 12 1016.8 1016.7 0.0
 
Date/Time
EST
Temp
°C
App
Temp
°C
Dew
Point
Rel
Hum
%
Delta-T
°C
Wind Press
QNH
hPa
Press
MSL
hPa
Rain
since 9 am
mm
Dir
 
Spd
km/h
Gust
km/h
Spd
kts
Gust
kts
27/11:30pm 21.2 20.7 16.0 72 3.1 SE 13 15 7 8 1017.1 - 0.0
27/11:00pm 21.9 21.3 16.6 72 3.2 SE 15 20 8 11 1017.1 - 0.0
27/10:30pm 21.7 21.4 16.4 72 3.2 SE 13 17 7 9 1017.1 - 0.0
27/10:00pm 21.7 21.3 16.2 71 3.3 SE 13 17 7 9 1017.1 - 0.0
27/09:30pm 21.8 21.6 16.7 73 3.1 SE 13 17 7 9 1016.9 - 0.0
27/09:00pm 21.6 21.4 16.8 74 2.9 ESE 13 17 7 9 1016.7 1016.6 0.0
27/08:30pm 22.0 21.5 16.9 73 3.1 SE 15 20 8 11 1016.5 - 0.0
27/08:00pm 22.0 21.4 16.7 72 3.2 ESE 15 20 8 11 1016.3 - 0.0
27/07:30pm 21.9 21.1 16.0 69 3.6 ESE 15 19 8 10 1016.0 - 0.0
27/07:00pm 21.8 21.4 16.1 70 3.4 ESE 13 17 7 9 1015.8 - 0.0
27/06:30pm 22.1 21.3 15.2 65 4.1 ESE 13 19 7 10 1015.4 - 0.0
27/06:00pm 22.6 21.9 15.4 64 4.3 ESE 13 17 7 9 1015.1 1015.0 0.0
27/05:30pm 22.9 22.2 15.5 63 4.4 ESE 13 17 7 9 1014.8 - 0.0
27/05:00pm 23.5 22.8 15.5 60 4.8 SE 13 15 7 8 1014.5 - 0.0
27/04:30pm 24.6 24.2 16.1 59 5.2 ESE 13 19 7 10 1014.4 - 0.0
27/04:00pm 25.6 25.4 16.7 58 5.5 ESE 13 19 7 10 1014.3 - 0.0
27/03:30pm 26.2 25.4 17.0 57 5.7 ESE 17 20 9 11 1014.2 - 0.0
27/03:00pm 26.3 25.6 16.3 54 6.2 ESE 15 22 8 12 1014.2 1014.1 0.0
27/02:30pm 26.7 26.2 16.9 55 6.1 ESE 15 20 8 11 1014.5 - 0.0
27/02:00pm 26.2 25.5 16.4 54 6.0 ESE 15 22 8 12 1015.0 - 0.0
27/01:30pm 25.5 25.0 16.9 59 5.3 SE 15 20 8 11 1015.6 - 0.0
27/01:00pm 25.4 24.3 17.3 61 5.0 SE 19 24 10 13 1016.0 - 0.0
27/12:30pm 25.2 23.8 17.1 60 5.0 SE 20 24 11 13 1016.4 - 0.0
27/12:00pm 24.1 22.5 16.6 63 4.6 SSE 20 24 11 13 1016.7 1016.6 0.0
27/11:30am 24.2 23.0 17.0 64 4.4 SE 19 20 10 11 1016.9 - 0.0
27/11:00am 23.7 22.3 16.5 64 4.4 SSE 19 22 10 12 1017.3 - 0.0
27/10:30am 23.2 21.5 16.3 65 4.2 SSE 20 24 11 13 1017.7 - 0.0
27/10:00am 22.9 21.2 16.2 66 4.1 SSE 20 24 11 13 1017.8 - 0.0
27/09:30am 22.3 20.5 16.1 68 3.7 SSE 20 26 11 14 1017.9 - 0.0
27/09:00am 21.6 19.8 16.1 71 3.3 S 20 24 11 13 1017.7 1017.6 0.0
27/08:30am 21.4 20.1 16.8 75 2.8 SSW 19 22 10 12 1017.3 - 0.0
27/08:00am 20.9 19.4 16.7 77 2.5 SSW 20 22 11 12 1017.1 - 0.0
27/07:30am 20.7 19.2 16.7 78 2.4 SSW 20 24 11 13 1016.7 - 0.0
27/07:00am 20.6 19.0 16.6 78 2.4 SSW 20 24 11 13 1016.3 - 0.0
27/06:30am 20.5 18.9 16.5 78 2.4 SSW 20 22 11 12 1015.8 - 0.0
27/06:00am 20.5 18.8 16.3 77 2.5 SSW 20 22 11 12 1015.6 1015.5 0.0
27/05:30am 20.6 18.9 15.8 74 2.9 SSW 19 20 10 11 1015.5 - 0.0
27/05:00am 20.6 19.1 16.2 76 2.6 SSW 19 20 10 11 1015.3 - 0.0
27/04:30am 20.5 18.6 15.7 74 2.9 S 20 20 11 11 1015.2 - 0.0
27/04:00am 20.6 18.7 15.8 74 2.9 SSW 20 22 11 12 1015.2 - 0.0
27/03:30am 20.7 19.1 15.9 74 2.9 SSW 19 20 10 11 1015.3 - 0.0
27/03:00am 20.8 19.1 15.8 73 3.0 SSW 19 20 10 11 1015.4 1015.3 0.0
27/02:30am 20.9 19.3 16.1 74 2.9 SSW 19 20 10 11 1015.5 - 0.0
27/02:00am 20.9 19.1 15.9 73 3.0 SW 20 24 11 13 1015.7 - 0.0
27/01:30am 20.7 18.9 16.1 75 2.8 SSW 20 22 11 12 1015.9 - 0.0
27/01:00am 21.0 19.5 16.4 75 2.8 SW 19 20 10 11 1016.1 - 0.0
27/12:30am 21.1 20.0 16.3 74 2.9 SSW 17 20 9 11 1016.4 - 0.0
27/12:00am 21.2 20.0 16.0 72 3.1 SSW 17 20 9 11 1016.6 1016.5 0.0
 
Date/Time
EST
Temp
°C
App
Temp
°C
Dew
Point
Rel
Hum
%
Delta-T
°C
Wind Press
QNH
hPa
Press
MSL
hPa
Rain
since 9 am
mm
Dir
 
Spd
km/h
Gust
km/h
Spd
kts
Gust
kts
26/11:30pm 21.4 20.6 16.1 72 3.2 SSW 15 17 8 9 1016.7 - 0.0
26/11:00pm 22.0 20.8 17.4 75 2.8 S 20 24 11 13 1016.8 - 0.0
26/10:30pm 22.0 20.2 16.9 73 3.1 SSE 22 28 12 15 1016.9 - 0.0
26/10:00pm 22.2 20.0 17.8 76 2.7 SE 26 30 14 16 1016.8 - 0.0
26/09:30pm 22.1 19.3 16.4 70 3.5 SE 26 33 14 18 1016.7 - 0.0
26/09:00pm 22.3 19.0 16.1 68 3.7 SE 28 35 15 19 1016.7 1016.6 0.0
26/08:30pm 22.5 18.3 15.6 65 4.1 SE 32 35 17 19 1016.6 - 0.0
26/08:00pm 22.5 18.8 15.1 63 4.4 SE 28 35 15 19 1016.3 - 0.0
26/07:30pm 22.4 18.9 15.5 65 4.1 SE 28 37 15 20 1015.9 - 0.0
26/07:00pm 22.5 18.3 15.8 66 4.0 ESE 32 39 17 21 1015.6 - 0.0
26/06:30pm 22.5 18.2 15.4 64 4.2 ESE 32 39 17 21 1015.4 - 0.0
26/06:00pm 22.8 18.2 15.1 62 4.6 ESE 33 41 18 22 1015.1 1015.0 0.0
26/05:30pm 23.2 18.6 14.7 58 5.0 ESE 32 37 17 20 1014.8 - 0.0
26/05:00pm 23.5 19.0 15.3 60 4.9 ESE 33 39 18 21 1014.7 - 0.0
26/04:30pm 24.0 18.7 14.1 54 5.8 ESE 35 43 19 23 1014.5 - 0.0
26/04:00pm 24.6 20.0 15.2 55 5.6 ESE 33 41 18 22 1014.4 - 0.0
26/03:30pm 24.9 20.6 15.8 57 5.5 ESE 33 41 18 22 1014.3 - 0.0
26/03:00pm 25.8 21.9 16.4 56 5.8 ESE 32 43 17 23 1014.3 1014.2 0.0
26/02:30pm 25.5 21.4 16.4 57 5.6 SE 33 39 18 21 1014.6 - 0.0
26/02:00pm 25.3 20.7 14.7 51 6.3 SE 32 39 17 21 1014.9 - 0.0
26/01:30pm 25.7 22.2 16.5 56 5.7 SE 30 35 16 19 1015.3 - 0.0
26/01:00pm 25.9 22.3 16.2 55 5.9 SE 30 35 16 19 1015.8 - 0.0
26/12:30pm 25.3 21.6 15.9 56 5.7 SE 30 35 16 19 1016.1 - 0.0
26/12:00pm 24.9 21.3 16.3 59 5.3 SE 30 33 16 18 1016.5 1016.4 0.0
26/11:30am 24.4 21.9 17.1 63 4.5 SSE 26 30 14 16 1016.9 - 0.0
26/11:00am 23.6 21.4 16.9 66 4.1 SSE 24 28 13 15 1017.2 - 0.0
26/10:30am 23.3 21.1 16.8 67 4.0 SSE 24 28 13 15 1017.4 - 0.0
26/10:00am 23.1 21.1 17.3 70 3.6 SSE 24 28 13 15 1017.6 - 0.0
26/09:30am 22.6 20.3 16.6 69 3.7 SSE 24 26 13 14 1017.7 - 0.0
26/09:00am 22.2 20.2 16.5 70 3.5 SSE 22 26 12 14 1017.5 1017.4 0.0
26/08:30am 22.0 19.6 16.5 71 3.3 S 24 28 13 15 1017.4 - 0.0
26/08:00am 22.0 19.7 16.7 72 3.2 S 24 28 13 15 1017.1 - 0.0
26/07:30am 21.8 19.4 16.5 72 3.2 S 24 30 13 16 1016.9 - 0.0
26/07:00am 21.3 18.6 15.6 70 3.4 S 24 30 13 16 1016.6 - 0.0
26/06:30am 21.3 19.4 16.7 75 2.8 S 22 28 12 15 1016.3 - 0.0
26/06:00am 21.3 18.6 16.5 74 2.9 S 26 32 14 17 1015.9 1015.8 0.0
26/05:30am 21.1 18.2 16.1 73 3.0 S 26 32 14 17 1015.6 - 0.0
26/05:00am 21.1 18.0 16.5 75 2.8 SSE 28 32 15 17 1015.4 - 0.0
26/04:30am 21.0 17.7 16.0 73 3.0 SSE 28 32 15 17 1015.4 - 0.0
26/04:00am 21.0 17.7 16.0 73 3.0 SSE 28 32 15 17 1015.4 - 0.0
26/03:30am 21.1 17.6 15.6 71 3.3 SSE 28 33 15 18 1015.5 - 0.0
26/03:00am 21.3 17.5 15.8 71 3.3 SSE 30 35 16 19 1015.3 1015.2 0.0
26/02:30am 21.4 17.2 15.7 70 3.4 SSE 32 37 17 20 1015.4 - 0.0
26/02:00am 21.5 17.3 16.2 72 3.2 SSE 33 37 18 20 1015.7 - 0.0
26/01:30am 21.6 17.2 16.6 73 3.0 SSE 35 39 19 21 1015.8 - 0.0
26/01:00am 21.7 17.6 16.4 72 3.2 SSE 33 39 18 21 1016.2 - 0.0
26/12:30am 21.9 18.4 16.6 72 3.2 SSE 30 35 16 19 1016.5 - 0.0
26/12:00am 21.9 18.0 16.4 71 3.3 SSE 32 35 17 19 1016.8 1016.7 0.0
 
Date/Time
EST
Temp
°C
App
Temp
°C
Dew
Point
Rel
Hum
%
Delta-T
°C
Wind Press
QNH
hPa
Press
MSL
hPa
Rain
since 9 am
mm
Dir
 
Spd
km/h
Gust
km/h
Spd
kts
Gust
kts
25/11:30pm 22.0 17.8 16.3 70 3.4 S 33 37 18 20 1016.8 - 0.0
25/11:00pm 22.0 17.8 16.3 70 3.4 S 33 39 18 21 1017.1 - 0.0
25/10:30pm 22.0 18.9 17.4 75 2.8 S 30 35 16 19 1017.3 - 0.0
25/10:00pm 22.0 18.4 17.2 74 2.9 S 32 35 17 19 1017.5 - 0.0
25/09:30pm 22.2 17.9 16.9 72 3.2 SSE 35 41 19 22 1017.6 - 0.0
25/09:00pm 22.1 17.5 18.1 78 2.5 SE 39 43 21 23 1017.8 1017.7 0.0
25/08:30pm 22.2 17.9 18.6 80 2.3 SE 39 44 21 24 1017.7 - 0.0
25/08:00pm 22.2 17.6 18.0 77 2.6 SE 39 46 21 25 1017.4 - 0.0
25/07:30pm 22.3 17.5 18.3 78 2.5 SE 41 46 22 25 1017.1 - 0.0
25/07:00pm 22.4 17.5 17.3 73 3.1 SE 39 48 21 26 1016.8 - 0.0
25/06:30pm 22.4 17.6 17.5 74 3.0 SE 39 48 21 26 1016.4 - 0.0
25/06:00pm 22.5 17.6 17.4 73 3.1 SE 39 48 21 26 1016.2 1016.1 0.0
25/05:30pm 22.6 17.5 17.7 74 3.0 SE 41 50 22 27 1015.9 - 0.0

Other Formats:

Comma delimited format used in spreadsheet applications
http://www.bom.gov.au/fwo/IDQ60801/IDQ60801.94285.axf

JavaScript Object Notation format (JSON) in row-major order
http://www.bom.gov.au/fwo/IDQ60801/IDQ60801.94285.json